Time;durP1;ratioP1;P1;durP2;ratioP2;P2;SDS_P1;SDS_P2;PMS_P1;PMS_P2;Temp;Humidity;BMP_temperature;BMP_pressure;BME280_temperature;BME280_humidity;BME280_pressure;Samples;Min_cycle;Max_cycle;Signal;HPM_P1;HPM_P2
2023/06/23 00:00:12;;;;;;;16.08;9.73;;;;;;;25.05;54.67;101550.66;4950403;28;20408;-63
2023/06/23 00:02:41;;;;;;;11.70;8.07;;;;;;;25.01;54.40;101549.38;4935962;28;20079;-63
2023/06/23 00:05:08;;;;;;;15.43;8.65;;;;;;;25.00;54.44;101564.13;4934482;29;20034;-63
2023/06/23 00:07:35;;;;;;;13.20;8.65;;;;;;;24.97;54.45;101570.03;4934475;29;20047;-63
2023/06/23 00:10:01;;;;;;;17.65;8.95;;;;;;;24.95;54.49;101578.47;4950530;28;20035;-63
2023/06/23 00:12:27;;;;;;;16.52;8.38;;;;;;;24.92;54.86;101584.38;4935790;28;20035;-64
2023/06/23 00:14:53;;;;;;;13.05;8.10;;;;;;;24.92;54.31;101587.09;4934702;28;20039;-63
2023/06/23 00:17:20;;;;;;;16.50;8.57;;;;;;;24.90;54.39;101602.91;4936012;29;20559;-63
2023/06/23 00:19:47;;;;;;;12.63;8.38;;;;;;;24.89;54.60;101613.03;4934577;29;20056;-63
2023/06/23 00:22:12;;;;;;;12.57;7.40;;;;;;;24.88;54.13;101613.22;4936298;29;20051;-63
2023/06/23 00:24:37;;;;;;;11.30;7.75;;;;;;;24.85;54.83;101610.88;4935881;29;20506;-62
2023/06/23 00:27:03;;;;;;;12.38;7.68;;;;;;;24.82;54.16;101614.88;4935450;29;20032;-63
2023/06/23 00:29:28;;;;;;;11.55;7.72;;;;;;;24.80;54.13;101614.25;4934216;29;20115;-62
2023/06/23 00:31:54;;;;;;;12.30;8.13;;;;;;;24.76;54.43;101604.69;4950365;28;20443;-63
2023/06/23 00:34:19;;;;;;;13.98;7.50;;;;;;;24.74;54.33;101598.56;4934486;28;20119;-63
2023/06/23 00:36:44;;;;;;;16.33;7.55;;;;;;;24.71;54.01;101598.13;4916184;29;20044;-63
2023/06/23 00:39:10;;;;;;;13.63;7.25;;;;;;;24.66;54.10;101601.50;4926817;29;20511;-63
2023/06/23 00:41:35;;;;;;;15.00;7.88;;;;;;;24.63;54.31;101607.38;4921999;29;20058;-62
2023/06/23 00:44:00;;;;;;;14.43;7.20;;;;;;;24.60;54.75;101607.78;4921983;29;20443;-63
2023/06/23 00:46:27;;;;;;;11.95;7.18;;;;;;;24.57;54.37;101613.66;4938147;29;20032;-63
2023/06/23 00:48:53;;;;;;;13.10;8.13;;;;;;;24.56;53.73;101619.34;4954232;28;20065;-63
2023/06/23 00:51:19;;;;;;;13.27;7.07;;;;;;;24.53;54.85;101626.06;4939284;28;20043;-63
2023/06/23 00:53:48;;;;;;;11.07;7.57;;;;;;;24.53;54.32;101623.34;4937869;28;20506;-63
2023/06/23 00:56:21;;;;;;;14.68;7.47;;;;;;;24.51;54.43;101625.41;4937494;29;20047;-63
2023/06/23 00:58:47;;;;;;;11.55;7.18;;;;;;;24.51;54.11;101627.31;4953286;28;20040;-63
2023/06/23 01:01:12;;;;;;;9.52;6.10;;;;;;;24.50;53.96;101634.69;4937651;29;20044;-62
2023/06/23 01:03:38;;;;;;;11.65;6.53;;;;;;;24.48;54.08;101641.44;4937664;29;20585;-63
2023/06/23 01:06:14;;;;;;;14.20;6.97;;;;;;;24.45;54.38;101648.16;4937499;29;20035;-63
2023/06/23 01:09:11;;;;;;;11.55;6.72;;;;;;;24.41;54.00;101644.09;4937701;29;20110;-63
2023/06/23 01:12:09;;;;;;;11.95;6.47;;;;;;;24.41;53.55;101641.38;4938834;29;20042;-64
2023/06/23 01:14:40;;;;;;;10.85;6.72;;;;;;;24.35;54.15;101653.13;4937244;28;20147;-63
2023/06/23 01:17:10;;;;;;;9.70;6.78;;;;;;;24.33;54.52;101660.69;4953780;28;20092;-62
2023/06/23 01:19:52;;;;;;;12.65;6.40;;;;;;;24.31;54.11;101651.84;4937342;28;20048;-63
2023/06/23 01:25:58;;;;;;;13.27;6.28;;;;;;;24.23;54.34;101655.53;4939102;29;20043;-63
2023/06/23 01:28:55;;;;;;;9.80;5.47;;;;;;;24.21;54.47;101656.78;4937376;29;20130;-63
2023/06/23 01:31:45;;;;;;;9.10;5.97;;;;;;;24.18;53.83;101668.13;4937093;28;20043;-63
2023/06/23 01:34:18;;;;;;;8.48;6.50;;;;;;;24.17;54.30;101683.75;4934747;29;20054;-63
2023/06/23 01:36:51;;;;;;;13.73;6.43;;;;;;;24.14;53.88;101683.28;4937527;29;20048;-63
2023/06/23 01:39:18;;;;;;;10.43;6.32;;;;;;;24.15;54.14;101684.97;4953207;28;20119;-62
2023/06/23 01:41:56;;;;;;;16.27;6.88;;;;;;;24.11;53.96;101694.63;4937084;29;20094;-62
2023/06/23 01:44:23;;;;;;;15.70;8.05;;;;;;;24.10;54.31;101698.41;4937077;29;20038;-62
2023/06/23 01:46:51;;;;;;;9.68;6.25;;;;;;;24.08;53.76;101700.47;4936887;28;20087;-62
2023/06/23 01:49:23;;;;;;;15.38;6.38;;;;;;;24.06;53.76;101702.56;4936780;28;20491;-63
2023/06/23 01:51:49;;;;;;;13.88;6.22;;;;;;;24.04;53.88;101704.63;4938484;28;20046;-62
2023/06/23 01:54:17;;;;;;;10.38;6.38;;;;;;;24.03;54.36;101708.41;4937163;28;20047;-62
2023/06/23 01:56:44;;;;;;;10.65;6.35;;;;;;;24.02;53.62;101707.56;4937879;29;20048;-63
2023/06/23 01:59:11;;;;;;;10.93;6.18;;;;;;;24.00;53.85;101704.19;4939011;29;20039;-63
2023/06/23 02:01:37;;;;;;;12.00;6.55;;;;;;;23.98;53.88;101699.94;4939226;29;20043;-63
2023/06/23 02:04:03;;;;;;;16.10;6.50;;;;;;;23.97;53.99;101703.72;4940347;29;20032;-63
2023/06/23 02:06:30;;;;;;;11.88;6.68;;;;;;;23.94;54.33;101713.19;4940522;29;20114;-62
2023/06/23 02:08:56;;;;;;;11.75;6.20;;;;;;;23.96;54.35;101724.78;4921450;29;20526;-62
2023/06/23 02:11:22;;;;;;;11.60;6.82;;;;;;;23.95;53.96;101711.28;4929706;29;20036;-62
2023/06/23 02:13:48;;;;;;;11.05;6.57;;;;;;;23.93;53.55;101722.41;4936741;29;20044;-62
2023/06/23 02:16:14;;;;;;;13.00;6.47;;;;;;;23.92;54.02;101728.09;4920525;29;20132;-62
2023/06/23 02:18:40;;;;;;;11.05;6.70;;;;;;;23.90;54.40;101724.72;4937203;28;20072;-63
2023/06/23 02:21:06;;;;;;;12.07;7.25;;;;;;;23.89;53.56;101734.81;4936824;29;20402;-63
2023/06/23 02:23:33;;;;;;;9.98;6.28;;;;;;;23.88;53.91;101732.25;4920622;28;20042;-63
2023/06/23 02:26:00;;;;;;;13.45;7.07;;;;;;;23.87;53.52;101736.88;4936205;29;20103;-62
2023/06/23 02:28:26;;;;;;;14.35;7.07;;;;;;;23.87;54.59;101733.31;4920185;29;20031;-62
2023/06/23 02:30:53;;;;;;;16.40;7.25;;;;;;;23.85;54.18;101729.91;4936080;29;20039;-62
2023/06/23 02:33:18;;;;;;;14.18;6.95;;;;;;;23.87;53.95;101744.25;4936176;28;20139;-63
2023/06/23 02:35:43;;;;;;;17.52;7.90;;;;;;;23.84;53.98;101742.75;4936161;29;20551;-62
2023/06/23 02:38:12;;;;;;;15.32;7.80;;;;;;;23.81;54.13;101736.81;4936072;29;20035;-62
2023/06/23 02:40:39;;;;;;;15.63;7.75;;;;;;;23.84;54.52;101752.84;4936037;28;20100;-64
2023/06/23 02:43:10;;;;;;;13.05;7.63;;;;;;;23.83;53.64;101762.09;4936254;29;20135;-63
2023/06/23 02:45:43;;;;;;;13.73;7.93;;;;;;;23.82;53.60;101765.88;4936024;29;20040;-64
2023/06/23 02:48:13;;;;;;;13.88;8.20;;;;;;;23.80;54.33;101762.47;4937015;29;20043;-63
2023/06/23 02:50:39;;;;;;;14.65;8.15;;;;;;;23.80;54.06;101768.81;4935668;29;20032;-62
2023/06/23 02:53:09;;;;;;;15.43;8.90;;;;;;;23.77;54.10;101761.84;4935640;29;20091;-63
2023/06/23 02:55:44;;;;;;;13.57;8.65;;;;;;;23.79;53.51;101769.84;4935543;29;20036;-63
2023/06/23 02:58:13;;;;;;;17.52;9.10;;;;;;;23.78;53.38;101766.25;4935937;28;20393;-63
2023/06/23 03:00:38;;;;;;;15.88;9.60;;;;;;;23.76;53.90;101767.47;4934894;29;20118;-63
2023/06/23 03:03:08;;;;;;;17.23;9.52;;;;;;;23.74;53.48;101764.94;4935837;28;20044;-62
2023/06/23 03:05:33;;;;;;;18.02;9.20;;;;;;;23.74;53.76;101772.31;4935567;29;20031;-62
2023/06/23 03:08:00;;;;;;;14.93;8.57;;;;;;;23.74;53.79;101769.56;4935312;28;20036;-62
2023/06/23 03:10:27;;;;;;;17.27;10.23;;;;;;;23.72;54.28;101772.50;4935374;28;20047;-62
2023/06/23 03:12:52;;;;;;;18.65;9.50;;;;;;;23.72;53.68;101769.78;4935371;28;20395;-62
2023/06/23 03:15:18;;;;;;;18.67;10.25;;;;;;;23.72;53.74;101774.41;4936137;29;20036;-63
2023/06/23 03:17:44;;;;;;;17.98;9.70;;;;;;;23.71;53.67;101778.16;4934998;29;20055;-63
2023/06/23 03:20:24;;;;;;;21.38;10.40;;;;;;;23.70;53.86;101785.50;4935092;28;20051;-63
2023/06/23 03:22:55;;;;;;;15.60;8.70;;;;;;;23.67;53.81;101780.44;4919126;28;20054;-63
2023/06/23 03:25:26;;;;;;;19.73;10.48;;;;;;;23.65;54.02;101793.47;4935096;28;20488;-62
2023/06/23 03:27:54;;;;;;;19.63;10.68;;;;;;;23.65;53.15;101790.72;4950699;28;20042;-64
2023/06/23 03:30:25;;;;;;;18.23;9.55;;;;;;;23.64;54.06;101789.03;4935107;29;20024;-62
2023/06/23 03:32:52;;;;;;;16.75;9.07;;;;;;;23.63;53.06;101795.53;4934868;28;20118;-62
2023/06/23 03:35:26;;;;;;;18.38;9.63;;;;;;;23.63;53.41;101791.97;4934783;28;20040;-63
2023/06/23 03:37:59;;;;;;;17.05;9.00;;;;;;;23.63;53.42;101794.69;4934831;29;20044;-62
2023/06/23 03:40:26;;;;;;;16.77;9.07;;;;;;;23.63;53.87;101798.28;4934826;29;20035;-63
2023/06/23 03:43:03;;;;;;;13.35;9.35;;;;;;;23.61;53.59;101781.22;4934998;29;20093;-63
2023/06/23 03:45:29;;;;;;;17.95;9.07;;;;;;;23.59;53.50;101783.28;4934766;29;20102;-63
2023/06/23 03:48:00;;;;;;;14.50;9.00;;;;;;;23.63;53.98;101797.44;4918815;29;20039;-62
2023/06/23 03:50:28;;;;;;;16.80;8.77;;;;;;;23.62;53.77;101798.44;4934895;29;20500;-62
2023/06/23 03:52:54;;;;;;;21.23;9.32;;;;;;;23.61;53.47;101797.63;4949369;28;20126;-63
2023/06/23 03:55:23;;;;;;;18.55;9.27;;;;;;;23.63;53.14;101806.50;4931634;28;20160;-62
2023/06/23 03:57:49;;;;;;;16.25;9.05;;;;;;;23.63;52.87;101808.38;4912065;29;20090;-62
2023/06/23 04:00:16;;;;;;;16.15;8.88;;;;;;;23.62;53.67;101814.88;4934796;29;20118;-62
2023/06/23 04:02:42;;;;;;;17.50;9.30;;;;;;;23.63;53.54;101811.97;4950253;28;20036;-62
2023/06/23 04:05:12;;;;;;;12.75;9.32;;;;;;;23.64;52.82;101819.16;4932013;28;20045;-62
2023/06/23 04:07:42;;;;;;;20.55;9.63;;;;;;;23.65;53.35;101819.97;4928387;29;20578;-63
2023/06/23 04:10:08;;;;;;;13.73;9.40;;;;;;;23.66;52.57;101817.06;4950503;28;20036;-64
2023/06/23 04:12:34;;;;;;;14.55;9.45;;;;;;;23.65;52.66;101815.34;4933519;29;20503;-63
2023/06/23 04:15:01;;;;;;;18.05;10.02;;;;;;;23.68;53.29;101823.19;4934299;29;20039;-63
2023/06/23 04:17:28;;;;;;;16.33;9.23;;;;;;;23.68;53.09;101828.66;4934649;29;20122;-63
2023/06/23 04:19:57;;;;;;;20.30;10.30;;;;;;;23.71;52.89;101841.94;4934475;29;20054;-63
2023/06/23 04:22:25;;;;;;;18.35;9.50;;;;;;;23.72;52.58;101840.94;4918695;29;20039;-63
2023/06/23 04:24:52;;;;;;;15.18;8.82;;;;;;;23.77;53.01;101843.06;4934429;29;20039;-62
2023/06/23 04:27:18;;;;;;;16.95;9.90;;;;;;;23.81;52.92;101849.88;4934298;29;20119;-63
2023/06/23 04:29:48;;;;;;;16.75;9.85;;;;;;;23.87;52.08;101857.31;4934196;28;20507;-62
2023/06/23 04:32:15;;;;;;;19.17;10.98;;;;;;;23.92;51.97;101854.00;4934233;29;20039;-62
2023/06/23 04:34:42;;;;;;;19.63;8.98;;;;;;;23.99;52.17;101854.94;4950009;28;20036;-62
2023/06/23 04:37:16;;;;;;;19.60;9.35;;;;;;;24.06;52.28;101864.94;4934216;29;20034;-63
2023/06/23 04:39:51;;;;;;;16.50;8.82;;;;;;;24.11;51.97;101864.38;4941288;28;20059;-63
2023/06/23 04:42:21;;;;;;;17.90;9.57;;;;;;;24.18;52.31;101860.69;4933773;28;20043;-63
2023/06/23 04:44:53;;;;;;;17.35;9.15;;;;;;;24.28;52.13;101874.06;4934059;28;20067;-63
2023/06/23 04:47:20;;;;;;;14.57;9.35;;;;;;;24.35;52.11;101872.25;4950621;28;20119;-63
2023/06/23 04:49:49;;;;;;;19.35;8.20;;;;;;;24.46;51.36;101871.72;4934539;28;20031;-63
2023/06/23 04:52:16;;;;;;;16.35;9.30;;;;;;;24.53;51.92;101875.41;4934066;28;20075;-62
2023/06/23 04:54:44;;;;;;;14.52;8.30;;;;;;;24.62;51.77;101879.69;4934036;28;20047;-63
2023/06/23 04:57:18;;;;;;;13.05;8.75;;;;;;;24.67;51.20;101877.25;4934220;28;20474;-63
2023/06/23 04:59:49;;;;;;;16.42;9.43;;;;;;;24.80;51.34;101887.50;4933858;29;20035;-62
2023/06/23 05:02:15;;;;;;;19.42;9.85;;;;;;;24.87;51.54;101875.53;4949696;28;20040;-63
2023/06/23 05:04:42;;;;;;;13.07;8.52;;;;;;;24.94;50.99;101881.09;4934194;28;20452;-62
2023/06/23 05:07:08;;;;;;;16.98;9.30;;;;;;;25.06;51.10;101886.91;4934185;29;20407;-64
2023/06/23 05:09:34;;;;;;;14.65;7.65;;;;;;;25.16;50.77;101887.41;4950022;28;20107;-62
2023/06/23 05:12:00;;;;;;;24.05;9.02;;;;;;;25.27;50.65;101884.09;4934158;29;20107;-63
2023/06/23 05:14:26;;;;;;;13.05;9.05;;;;;;;25.37;50.54;101885.47;4933915;28;20502;-63
2023/06/23 05:16:53;;;;;;;17.92;8.88;;;;;;;25.46;50.42;101889.72;4918068;29;20415;-63
2023/06/23 05:19:19;;;;;;;14.57;8.52;;;;;;;25.57;50.26;101890.28;4932814;29;20036;-64
2023/06/23 05:21:45;;;;;;;15.38;9.20;;;;;;;25.65;49.92;101893.72;4918247;29;20436;-63
2023/06/23 05:24:11;;;;;;;10.85;7.75;;;;;;;25.73;49.88;101895.44;4936537;29;20087;-63
2023/06/23 05:26:38;;;;;;;17.48;7.90;;;;;;;25.84;49.97;101901.22;4937315;29;20148;-64
2023/06/23 05:29:07;;;;;;;16.30;8.80;;;;;;;25.94;49.80;101893.44;4937827;28;20031;-63
2023/06/23 05:31:36;;;;;;;13.80;8.55;;;;;;;26.01;49.49;101899.81;4940335;29;20051;-61
2023/06/23 05:34:01;;;;;;;18.80;8.70;;;;;;;26.13;48.90;101904.72;4956514;28;20118;-62
2023/06/23 05:36:29;;;;;;;16.55;7.40;;;;;;;26.23;49.13;101910.72;4940099;28;20524;-62
2023/06/23 05:38:54;;;;;;;14.60;7.97;;;;;;;26.29;49.19;101896.16;4924631;29;20035;-62
2023/06/23 05:41:20;;;;;;;16.20;8.38;;;;;;;26.39;49.37;101902.94;4957656;28;20126;-62
2023/06/23 05:43:45;;;;;;;14.40;9.13;;;;;;;26.54;48.50;101922.03;4957488;28;20130;-61
2023/06/23 05:46:12;;;;;;;10.65;7.25;;;;;;;26.67;48.51;101915.69;4972101;28;20086;-62
2023/06/23 05:48:42;;;;;;;15.07;8.48;;;;;;;26.81;48.21;101912.81;4940298;29;20443;-61
2023/06/23 05:51:11;;;;;;;16.98;9.00;;;;;;;26.94;48.47;101918.31;4953241;28;20028;-61
2023/06/23 05:53:38;;;;;;;14.10;8.77;;;;;;;27.10;48.21;101917.91;4931566;29;20114;-62
2023/06/23 05:56:16;;;;;;;20.00;8.20;;;;;;;27.26;47.60;101907.53;4939800;29;20122;-61
2023/06/23 05:58:45;;;;;;;14.90;8.23;;;;;;;27.43;47.97;101920.69;4939633;29;20037;-62
2023/06/23 06:01:14;;;;;;;12.32;7.95;;;;;;;27.60;47.39;101913.69;4956867;28;20518;-61
2023/06/23 06:03:44;;;;;;;16.70;7.60;;;;;;;27.82;47.75;101917.00;4971626;28;20035;-61
2023/06/23 06:06:10;;;;;;;13.13;8.02;;;;;;;27.97;46.97;101923.13;4939702;29;20491;-62
2023/06/23 06:08:38;;;;;;;12.15;7.50;;;;;;;28.13;46.60;101933.69;4956565;28;20513;-62
2023/06/23 06:11:04;;;;;;;12.90;8.27;;;;;;;28.29;46.17;101938.72;4939347;29;20035;-61
2023/06/23 06:13:35;;;;;;;13.75;7.45;;;;;;;28.44;46.05;101943.09;4955619;28;20435;-61
2023/06/23 06:16:02;;;;;;;11.35;7.05;;;;;;;28.62;46.64;101951.47;4955397;28;20090;-62
2023/06/23 06:18:27;;;;;;;12.07;7.03;;;;;;;28.75;45.78;101946.78;4923436;29;20043;-61
2023/06/23 06:20:55;;;;;;;15.20;7.22;;;;;;;28.88;46.27;101963.25;4955284;28;20403;-61
2023/06/23 06:23:21;;;;;;;11.20;7.40;;;;;;;29.06;45.54;101958.88;4956638;28;20502;-61
2023/06/23 06:25:49;;;;;;;11.63;7.78;;;;;;;29.24;45.20;101970.88;4956625;28;20035;-61
2023/06/23 06:28:15;;;;;;;15.32;7.97;;;;;;;29.38;45.04;101975.22;4939580;28;20039;-61
2023/06/23 06:30:41;;;;;;;14.65;7.60;;;;;;;29.51;44.75;101965.13;4955299;28;20051;-62
2023/06/23 06:33:07;;;;;;;14.38;7.10;;;;;;;29.68;44.43;101971.75;4955472;28;20036;-61
2023/06/23 06:35:34;;;;;;;11.80;7.28;;;;;;;29.80;44.73;101967.22;4955293;28;20530;-61
2023/06/23 06:38:00;;;;;;;11.45;6.40;;;;;;;29.92;44.18;101965.41;4939094;29;20048;-61
2023/06/23 06:40:26;;;;;;;10.20;6.63;;;;;;;30.10;44.05;101967.31;4955099;28;20466;-61
2023/06/23 06:42:52;;;;;;;11.23;7.95;;;;;;;30.21;43.85;101958.25;4922863;29;20090;-61
2023/06/23 06:45:17;;;;;;;9.60;6.97;;;;;;;30.33;43.45;101968.31;4954880;28;20031;-61
2023/06/23 06:47:44;;;;;;;12.20;6.60;;;;;;;30.51;43.25;101973.84;4938918;29;20035;-61
2023/06/23 06:50:14;;;;;;;12.27;7.38;;;;;;;30.66;43.03;101984.50;4922831;29;20031;-61
2023/06/23 06:52:40;;;;;;;12.20;7.43;;;;;;;30.80;42.83;101990.69;4954815;28;20035;-61
2023/06/23 06:55:09;;;;;;;13.43;7.55;;;;;;;30.89;42.75;101990.13;4938547;29;20053;-61
2023/06/23 06:57:35;;;;;;;12.38;6.90;;;;;;;31.01;42.11;101984.69;4954691;28;20039;-61
2023/06/23 07:00:03;;;;;;;12.25;6.85;;;;;;;31.13;42.44;101980.00;4938426;28;20066;-62
2023/06/23 07:02:30;;;;;;;11.85;7.20;;;;;;;31.27;41.95;101984.25;4955145;28;20034;-61
2023/06/23 07:04:56;;;;;;;10.05;6.80;;;;;;;31.41;41.34;101988.50;4903890;28;20079;-62
2023/06/23 07:07:21;;;;;;;12.32;6.70;;;;;;;31.49;42.05;101984.56;4919619;28;20031;-61
2023/06/23 07:09:46;;;;;;;11.88;6.85;;;;;;;31.58;41.36;101996.97;4919450;28;20099;-61
2023/06/23 07:12:12;;;;;;;11.02;7.05;;;;;;;31.70;41.72;102001.47;4919377;28;20408;-61
2023/06/23 07:14:37;;;;;;;11.77;7.05;;;;;;;31.86;41.56;101994.34;4936478;28;20028;-61
2023/06/23 07:17:03;;;;;;;10.85;6.15;;;;;;;31.98;41.09;101994.34;4936825;28;20229;-61
2023/06/23 07:19:28;;;;;;;12.30;6.57;;;;;;;32.12;40.43;101990.25;4918971;28;20094;-61
2023/06/23 07:21:53;;;;;;;11.73;6.53;;;;;;;32.23;41.04;101992.16;4935124;28;20032;-61
2023/06/23 07:24:19;;;;;;;12.60;7.30;;;;;;;32.39;40.30;102002.50;4919479;28;20115;-61
2023/06/23 07:26:44;;;;;;;10.75;7.03;;;;;;;32.55;39.81;101996.19;4935300;28;20028;-61
2023/06/23 07:29:10;;;;;;;10.63;6.40;;;;;;;32.69;40.32;102003.16;4903269;28;20030;-63
2023/06/23 07:31:37;;;;;;;11.13;6.00;;;;;;;32.81;39.44;102006.72;4934820;28;20020;-62
2023/06/23 07:34:02;;;;;;;9.55;6.03;;;;;;;32.98;39.26;102008.69;4919495;28;20019;-62
2023/06/23 07:36:28;;;;;;;9.27;6.20;;;;;;;33.12;39.54;102013.75;4918982;28;20585;-61
2023/06/23 07:38:53;;;;;;;11.68;6.93;;;;;;;33.29;39.21;102013.75;4936206;28;20031;-61
2023/06/23 07:41:19;;;;;;;9.18;6.35;;;;;;;33.42;39.32;102016.22;4934767;28;20028;-61
2023/06/23 07:43:44;;;;;;;10.32;6.75;;;;;;;33.56;39.25;102025.91;4935960;28;20028;-62
2023/06/23 07:46:10;;;;;;;11.82;6.03;;;;;;;33.71;39.21;102026.19;4934535;28;20020;-61
2023/06/23 07:48:35;;;;;;;10.00;7.47;;;;;;;33.84;37.79;102028.63;4934760;28;20028;-62
2023/06/23 07:51:02;;;;;;;10.75;6.90;;;;;;;33.92;38.61;102030.97;4918976;28;20028;-62
2023/06/23 07:53:27;;;;;;;11.20;7.15;;;;;;;34.08;37.77;102034.88;4919423;28;20115;-62
2023/06/23 07:55:53;;;;;;;10.20;7.05;;;;;;;34.19;37.29;102028.34;4934403;28;20322;-61
2023/06/23 07:58:18;;;;;;;10.88;7.03;;;;;;;34.24;37.84;102027.56;4934553;28;20035;-62
2023/06/23 08:00:43;;;;;;;12.60;6.53;;;;;;;34.33;37.72;102031.59;4934574;28;20035;-61
2023/06/23 08:03:09;;;;;;;12.20;6.65;;;;;;;34.44;37.18;102028.69;4950399;28;20099;-62
2023/06/23 08:05:34;;;;;;;11.70;6.85;;;;;;;34.56;36.93;102025.78;4935677;28;20067;-62
2023/06/23 08:07:59;;;;;;;12.02;7.15;;;;;;;34.63;36.55;102020.88;4934395;28;20531;-63
2023/06/23 08:10:25;;;;;;;9.15;5.75;;;;;;;34.65;37.05;102024.25;4935456;28;20028;-61
2023/06/23 08:12:50;;;;;;;12.00;6.35;;;;;;;34.88;36.69;102023.97;4918388;28;20119;-62
2023/06/23 08:15:15;;;;;;;10.15;6.40;;;;;;;35.06;36.68;102026.44;4934247;28;20044;-63
2023/06/23 08:17:41;;;;;;;10.02;5.55;;;;;;;35.22;36.53;102021.84;4918507;28;20028;-63
2023/06/23 08:20:07;;;;;;;8.20;5.22;;;;;;;35.34;36.38;102021.69;4935987;28;20515;-61
2023/06/23 08:22:32;;;;;;;8.18;5.50;;;;;;;35.51;35.68;102022.38;4934460;28;20036;-62
2023/06/23 08:24:57;;;;;;;8.15;5.10;;;;;;;35.68;34.99;102023.09;4918537;28;20400;-62
2023/06/23 08:27:23;;;;;;;9.20;5.72;;;;;;;35.81;35.16;102033.81;4935496;28;20064;-62
2023/06/23 08:29:48;;;;;;;8.23;5.72;;;;;;;35.92;34.72;102030.00;4935474;28;20035;-62
2023/06/23 08:32:13;;;;;;;8.30;5.65;;;;;;;36.05;34.87;102028.69;4935427;28;20403;-63
2023/06/23 08:34:40;;;;;;;8.38;5.40;;;;;;;36.21;34.36;102031.31;4950058;28;20047;-62
2023/06/23 08:37:06;;;;;;;7.40;4.57;;;;;;;36.34;33.95;102032.78;4935569;28;20031;-62
2023/06/23 08:39:31;;;;;;;6.85;4.50;;;;;;;36.40;34.55;102030.84;4934065;28;20095;-61
2023/06/23 08:41:58;;;;;;;7.65;5.38;;;;;;;36.46;33.49;102040.94;4918541;28;20036;-63
2023/06/23 08:44:25;;;;;;;10.10;5.93;;;;;;;36.57;33.39;102037.09;4903166;29;20461;-63
2023/06/23 08:46:56;;;;;;;10.57;6.28;;;;;;;36.68;33.55;102034.09;4935347;28;20055;-61
2023/06/23 08:49:23;;;;;;;8.35;5.07;;;;;;;36.85;33.68;102045.03;4934121;28;20123;-61
2023/06/23 08:51:49;;;;;;;9.02;5.50;;;;;;;36.89;32.96;102046.16;4934020;28;20183;-61
2023/06/23 08:54:14;;;;;;;8.00;4.88;;;;;;;37.01;32.91;102041.19;4918235;28;20028;-62
2023/06/23 08:56:40;;;;;;;7.57;4.97;;;;;;;37.15;32.72;102045.13;4935129;28;20499;-62
2023/06/23 08:59:05;;;;;;;7.10;4.43;;;;;;;37.25;33.09;102053.53;4920839;29;20376;-61
2023/06/23 09:01:31;;;;;;;6.15;4.68;;;;;;;37.12;33.11;102056.88;4937487;28;20059;-62
2023/06/23 09:03:56;;;;;;;8.45;4.50;;;;;;;37.33;33.17;102057.72;4921748;28;20054;-61
2023/06/23 09:06:22;;;;;;;7.18;4.95;;;;;;;37.42;32.65;102060.81;4937597;28;20047;-61
2023/06/23 09:08:49;;;;;;;8.73;5.13;;;;;;;37.48;32.43;102062.53;4937581;28;20543;-62
2023/06/23 09:11:14;;;;;;;10.18;5.50;;;;;;;37.59;32.24;102072.59;4937487;28;20070;-62
2023/06/23 09:13:41;;;;;;;8.48;5.30;;;;;;;37.34;32.53;102065.00;4937334;28;20071;-63
2023/06/23 09:16:09;;;;;;;7.65;5.43;;;;;;;37.38;32.41;102073.69;4937565;28;20118;-63
2023/06/23 09:18:40;;;;;;;9.10;5.30;;;;;;;37.26;32.88;102072.00;4937237;28;20058;-63
2023/06/23 09:21:07;;;;;;;6.53;4.93;;;;;;;37.62;31.63;102083.25;4937642;28;20032;-61
2023/06/23 09:23:35;;;;;;;9.75;4.88;;;;;;;37.79;32.10;102072.63;4937466;28;20044;-61
2023/06/23 09:26:03;;;;;;;8.48;5.78;;;;;;;37.93;31.34;102073.75;4920652;29;20046;-61
2023/06/23 09:28:34;;;;;;;6.95;4.50;;;;;;;38.10;31.48;102074.28;4938400;28;20039;-63
2023/06/23 09:31:13;;;;;;;10.13;4.93;;;;;;;38.31;32.06;102072.25;4921575;29;20391;-61
2023/06/23 09:33:49;;;;;;;6.18;4.20;;;;;;;38.44;31.71;102069.72;4937136;28;20486;-62
2023/06/23 09:36:15;;;;;;;5.90;4.00;;;;;;;38.53;30.56;102075.59;4937204;28;20059;-63
2023/06/23 09:38:40;;;;;;;8.13;4.97;;;;;;;38.69;30.93;102076.38;4937047;28;20070;-63
2023/06/23 09:41:10;;;;;;;6.13;4.40;;;;;;;38.77;30.43;102078.63;4936896;28;20070;-62
2023/06/23 09:43:47;;;;;;;5.88;4.75;;;;;;;38.83;29.59;102083.06;4920686;29;20174;-61
2023/06/23 09:46:15;;;;;;;8.25;4.55;;;;;;;38.90;30.04;102083.59;4921524;28;20031;-61
2023/06/23 09:48:42;;;;;;;7.88;3.65;;;;;;;39.00;30.62;102089.16;4936712;28;20036;-61
2023/06/23 09:51:08;;;;;;;8.95;3.55;;;;;;;39.11;30.49;102087.97;4938201;28;20052;-61
2023/06/23 09:53:35;;;;;;;7.53;4.85;;;;;;;39.32;29.54;102086.72;4952681;28;20070;-63
2023/06/23 09:56:03;;;;;;;4.55;3.50;;;;;;;38.90;29.62;102094.81;4936706;28;20495;-61
2023/06/23 09:58:39;;;;;;;11.25;4.65;;;;;;;38.46;30.72;102111.47;4936714;28;20046;-63
2023/06/23 10:01:10;;;;;;;7.53;4.05;;;;;;;38.98;29.48;102109.06;4936621;28;20040;-62
2023/06/23 10:03:48;;;;;;;34.22;32.15;;;;;;;39.61;28.68;102105.59;4936685;28;20031;-62
2023/06/23 10:06:43;;;;;;;32.17;30.15;;;;;;;40.29;28.83;102096.03;4955478;28;20403;-62
2023/06/23 10:09:10;;;;;;;69.32;65.90;;;;;;;41.06;27.67;102096.81;4951304;28;20110;-62
2023/06/23 10:11:40;;;;;;;9.80;5.15;;;;;;;42.09;26.91;102090.94;4955564;28;20070;-61
2023/06/23 10:14:10;;;;;;;10.25;4.72;;;;;;;43.32;25.52;102090.91;4955378;28;20130;-61
2023/06/23 10:16:36;;;;;;;8.10;4.45;;;;;;;43.94;25.01;102087.13;4939722;28;20507;-61
2023/06/23 10:19:03;;;;;;;6.97;4.32;;;;;;;43.77;25.27;102089.84;4955297;28;20047;-62
2023/06/23 10:21:28;;;;;;;6.03;4.00;;;;;;;43.45;25.15;102095.69;4955401;28;20042;-61
2023/06/23 10:23:57;;;;;;;5.32;4.10;;;;;;;43.08;25.58;102096.84;4939659;29;20442;-61
2023/06/23 10:26:23;;;;;;;5.68;4.35;;;;;;;42.76;25.75;102092.19;4955542;28;20108;-61
2023/06/23 10:28:49;;;;;;;7.82;5.35;;;;;;;42.55;25.72;102085.28;4955425;28;20039;-61
2023/06/23 10:31:16;;;;;;;6.95;4.80;;;;;;;42.13;26.43;102085.53;4955269;28;20032;-61
2023/06/23 10:33:42;;;;;;;5.68;3.90;;;;;;;42.12;26.33;102087.50;4956252;28;20519;-62
2023/06/23 10:36:08;;;;;;;9.75;5.53;;;;;;;42.20;26.37;102091.63;4937345;28;20067;-62
2023/06/23 10:38:38;;;;;;;6.32;4.65;;;;;;;42.24;25.88;102087.03;4955199;28;20129;-61
2023/06/23 10:41:04;;;;;;;5.00;3.65;;;;;;;42.40;25.99;102088.41;4971373;28;20150;-63
2023/06/23 10:43:32;;;;;;;5.85;4.00;;;;;;;42.50;25.51;102096.63;4955309;28;20031;-61
2023/06/23 10:45:59;;;;;;;4.10;3.42;;;;;;;42.62;25.44;102099.81;4955934;28;20031;-61
2023/06/23 10:48:25;;;;;;;3.80;3.33;;;;;;;42.83;25.47;102098.22;4938746;29;20035;-61
2023/06/23 10:50:51;;;;;;;4.78;4.00;;;;;;;43.05;24.76;102091.00;4938902;29;20046;-62
2023/06/23 10:53:18;;;;;;;4.82;3.38;;;;;;;43.16;24.52;102081.16;4938868;29;20035;-61
2023/06/23 10:55:46;;;;;;;5.85;3.53;;;;;;;42.74;24.79;102086.03;4938990;29;20507;-61
2023/06/23 10:58:16;;;;;;;4.38;3.10;;;;;;;42.91;24.58;102089.00;4955313;28;20115;-61
2023/06/23 11:01:00;;;;;;;4.53;3.05;;;;;;;43.04;24.18;102089.34;4939003;29;20041;-61
2023/06/23 11:03:36;;;;;;;4.60;2.88;;;;;;;43.27;24.70;102099.53;4955150;28;20483;-62
2023/06/23 11:06:08;;;;;;;3.45;2.70;;;;;;;43.43;24.27;102095.19;4938902;29;20035;-61
2023/06/23 11:08:39;;;;;;;7.43;3.80;;;;;;;43.53;24.41;102099.78;4954944;28;20063;-61
2023/06/23 11:11:06;;;;;;;4.47;3.05;;;;;;;43.68;24.27;102083.25;4938565;29;20090;-61
2023/06/23 11:13:42;;;;;;;3.60;2.63;;;;;;;43.79;23.79;102090.34;4954723;28;20043;-62
2023/06/23 11:16:12;;;;;;;3.92;2.47;;;;;;;43.90;24.07;102090.91;4938582;29;20415;-61
2023/06/23 11:18:47;;;;;;;5.65;3.17;;;;;;;44.00;23.15;102097.13;4961745;28;20059;-62
2023/06/23 11:21:17;;;;;;;3.20;2.40;;;;;;;44.06;23.17;102088.53;4967052;28;20038;-61
2023/06/23 11:24:08;;;;;;;3.03;2.67;;;;;;;43.88;23.23;102096.06;4967584;28;20047;-60
2023/06/23 11:26:34;;;;;;;4.63;3.10;;;;;;;44.03;22.83;102089.97;4963936;28;20043;-61